createdAt,value
2022-08-29T00:01:00.107Z,14.82
2022-08-29T00:03:27.544Z,16.67
2022-08-29T00:05:55.171Z,16.75
2022-08-29T00:08:22.360Z,14.60
2022-08-29T00:10:49.199Z,17.10
2022-08-29T00:13:16.504Z,15.68
2022-08-29T00:15:45.167Z,17.50
2022-08-29T00:18:14.622Z,16.90
2022-08-29T00:20:43.221Z,17.48
2022-08-29T00:23:10.496Z,17.27
2022-08-29T00:25:37.908Z,17.20
2022-08-29T00:28:05.506Z,16.85
2022-08-29T00:30:33.728Z,15.60
2022-08-29T00:33:00.555Z,16.88
2022-08-29T00:35:37.528Z,16.40
2022-08-29T00:38:07.429Z,18.30
2022-08-29T00:40:42.285Z,16.77
2022-08-29T00:43:12.154Z,16.75
2022-08-29T00:45:46.547Z,18.27
2022-08-29T00:48:15.744Z,19.90
2022-08-29T00:51:05.189Z,18.95
2022-08-29T00:53:38.622Z,20.48
2022-08-29T00:56:08.443Z,26.10
2022-08-29T00:58:44.434Z,17.70
2022-08-29T01:01:11.511Z,20.13
2022-08-29T01:03:42.708Z,21.67
2022-08-29T01:06:13.528Z,19.73
2022-08-29T01:08:40.882Z,21.25
2022-08-29T01:11:27.209Z,19.35
2022-08-29T01:13:54.941Z,24.27
2022-08-29T01:16:24.216Z,23.80
2022-08-29T01:18:55.809Z,23.90
2022-08-29T01:22:03.797Z,22.42
2022-08-29T01:24:50.993Z,22.38
2022-08-29T01:27:23.311Z,27.17
2022-08-29T01:29:50.205Z,22.98
2022-08-29T01:32:17.225Z,22.17
2022-08-29T01:34:44.406Z,21.60
2022-08-29T01:37:14.467Z,23.08
2022-08-29T01:39:43.922Z,24.38
2022-08-29T01:42:15.485Z,23.55
2022-08-29T01:44:52.534Z,23.15
2022-08-29T01:47:20.804Z,21.10
2022-08-29T01:49:47.692Z,21.38
2022-08-29T01:52:14.589Z,22.98
2022-08-29T01:54:43.365Z,24.27
2022-08-29T01:57:13.123Z,23.75
2022-08-29T01:59:40.734Z,27.67
2022-08-29T02:02:07.533Z,25.52
2022-08-29T02:04:34.898Z,27.75
2022-08-29T02:07:01.954Z,27.27
2022-08-29T02:09:29.473Z,26.67
2022-08-29T02:12:02.460Z,29.23
2022-08-29T02:14:30.413Z,25.50
2022-08-29T02:16:57.241Z,30.13
2022-08-29T02:19:24.534Z,25.77
2022-08-29T02:21:51.347Z,28.25
2022-08-29T02:24:26.434Z,28.65
2022-08-29T02:26:56.402Z,26.90
2022-08-29T02:29:24.217Z,26.20
2022-08-29T02:31:51.243Z,27.20
2022-08-29T02:34:18.809Z,25.08
2022-08-29T02:36:49.008Z,29.30
2022-08-29T02:39:18.027Z,29.52
2022-08-29T02:41:45.144Z,23.88
2022-08-29T02:44:12.301Z,26.10
2022-08-29T02:46:39.439Z,26.35
2022-08-29T02:49:06.986Z,33.60
2022-08-29T02:51:34.840Z,23.25
2022-08-29T02:54:03.715Z,27.02
2022-08-29T02:56:31.207Z,31.75
2022-08-29T02:58:59.485Z,29.85
2022-08-29T03:01:27.390Z,31.05
2022-08-29T03:03:54.456Z,28.95
2022-08-29T03:06:22.009Z,25.67
2022-08-29T03:08:50.194Z,28.60
2022-08-29T03:11:17.549Z,34.47
2022-08-29T03:13:45.811Z,33.40
2022-08-29T03:16:13.219Z,33.55
2022-08-29T03:18:40.077Z,28.83
2022-08-29T03:21:16.698Z,29.92
2022-08-29T03:23:43.730Z,30.20
2022-08-29T03:26:10.573Z,26.08
2022-08-29T03:28:37.408Z,32.63
2022-08-29T03:31:04.346Z,25.92
2022-08-29T03:33:31.219Z,28.25
2022-08-29T03:35:58.100Z,28.50
2022-08-29T03:38:25.206Z,32.00
2022-08-29T03:40:52.185Z,30.65
2022-08-29T03:43:24.459Z,27.15
2022-08-29T03:45:51.466Z,30.02
2022-08-29T03:48:18.253Z,28.70
2022-08-29T03:50:45.178Z,30.92
2022-08-29T03:53:11.957Z,29.17
2022-08-29T03:55:39.544Z,37.85
2022-08-29T03:58:07.147Z,31.67
2022-08-29T04:00:34.357Z,37.35
2022-08-29T04:03:01.444Z,37.70
2022-08-29T04:05:28.953Z,39.45
2022-08-29T04:07:58.608Z,45.40
2022-08-29T04:10:33.955Z,33.08
2022-08-29T04:13:02.083Z,38.50
2022-08-29T04:15:32.439Z,38.72
2022-08-29T04:18:01.482Z,43.75
2022-08-29T04:20:31.910Z,33.90
2022-08-29T04:22:59.583Z,34.58
2022-08-29T04:25:28.586Z,34.92
2022-08-29T04:27:56.003Z,34.47
2022-08-29T04:30:25.458Z,33.72
2022-08-29T04:32:52.904Z,33.90
2022-08-29T04:35:20.453Z,34.15
2022-08-29T04:37:48.010Z,40.35
2022-08-29T04:40:20.025Z,31.80
2022-08-29T04:42:47.546Z,34.08
2022-08-29T04:45:17.949Z,35.75
2022-08-29T04:47:45.673Z,39.70
2022-08-29T04:50:15.746Z,39.05
2022-08-29T04:52:43.896Z,37.75
2022-08-29T04:55:11.853Z,43.38
2022-08-29T04:57:39.289Z,40.88
2022-08-29T05:00:12.550Z,33.00
2022-08-29T05:02:40.453Z,36.97
2022-08-29T05:05:08.836Z,30.42
2022-08-29T05:07:38.274Z,36.42
2022-08-29T05:10:26.303Z,38.40
2022-08-29T05:12:53.133Z,37.35
2022-08-29T05:15:20.027Z,28.25
2022-08-29T05:17:49.745Z,38.60
2022-08-29T05:20:17.051Z,36.45
2022-08-29T05:22:44.767Z,34.17
2022-08-29T05:25:17.996Z,29.10
2022-08-29T05:27:46.467Z,23.27
2022-08-29T05:30:14.237Z,19.20
2022-08-29T05:32:41.112Z,17.63
2022-08-29T05:35:08.894Z,14.30
2022-08-29T05:37:36.594Z,13.43
2022-08-29T05:40:04.525Z,12.98
2022-08-29T05:42:31.558Z,12.85
2022-08-29T05:44:58.512Z,12.48
2022-08-29T05:47:25.812Z,9.63
2022-08-29T05:49:52.638Z,11.48
2022-08-29T05:52:20.891Z,10.75
2022-08-29T05:54:48.174Z,10.63
2022-08-29T05:57:19.831Z,10.35
2022-08-29T05:59:52.150Z,11.35
2022-08-29T06:02:20.407Z,12.13
2022-08-29T06:04:47.523Z,9.90
2022-08-29T06:07:15.110Z,9.15
2022-08-29T06:09:43.211Z,9.43
2022-08-29T06:12:12.912Z,10.10
2022-08-29T06:14:40.986Z,8.88
2022-08-29T06:17:09.317Z,8.73
2022-08-29T06:19:36.727Z,10.02
2022-08-29T06:22:09.740Z,8.18
2022-08-29T06:24:38.766Z,10.00
2022-08-29T06:27:05.949Z,10.48
2022-08-29T06:29:41.671Z,9.82
2022-08-29T06:32:11.475Z,11.05
2022-08-29T06:34:38.583Z,11.02
2022-08-29T06:37:05.397Z,12.40
2022-08-29T06:39:32.197Z,13.77
2022-08-29T06:41:59.056Z,10.35
2022-08-29T06:44:26.634Z,11.52
2022-08-29T06:46:58.764Z,11.32
2022-08-29T06:49:27.572Z,9.77
2022-08-29T06:51:58.049Z,13.40
2022-08-29T06:54:28.056Z,13.10
2022-08-29T06:56:55.942Z,9.88
2022-08-29T06:59:23.014Z,10.60
2022-08-29T07:01:50.037Z,9.77
2022-08-29T07:04:20.607Z,9.68
2022-08-29T07:06:48.719Z,10.25
2022-08-29T07:09:15.532Z,11.25
2022-08-29T07:11:43.182Z,9.23
2022-08-29T07:14:11.088Z,10.38
2022-08-29T07:16:38.554Z,11.18
2022-08-29T07:19:06.858Z,9.90
2022-08-29T07:21:34.666Z,12.18
2022-08-29T07:24:02.222Z,9.63
2022-08-29T07:26:36.849Z,7.88
2022-08-29T07:29:08.148Z,10.55
2022-08-29T07:31:35.031Z,8.98
2022-08-29T07:34:03.327Z,6.53
2022-08-29T07:36:31.464Z,9.57
2022-08-29T07:38:58.326Z,9.35
2022-08-29T07:41:25.679Z,9.70
2022-08-29T07:43:52.549Z,9.27
2022-08-29T07:46:21.310Z,10.27
2022-08-29T07:48:49.141Z,7.05
2022-08-29T07:51:18.722Z,8.77
2022-08-29T07:53:46.889Z,7.85
2022-08-29T07:56:16.762Z,6.93
2022-08-29T07:58:43.936Z,8.63
2022-08-29T08:01:20.847Z,6.35
2022-08-29T08:03:50.970Z,6.82
2022-08-29T08:06:20.999Z,10.00
2022-08-29T08:08:48.379Z,7.93
2022-08-29T08:11:16.121Z,8.07
2022-08-29T08:13:43.507Z,10.05
2022-08-29T08:16:13.855Z,9.73
2022-08-29T08:18:42.771Z,11.48
2022-08-29T08:21:10.856Z,12.05
2022-08-29T08:23:38.299Z,8.05
2022-08-29T08:26:05.870Z,9.15
2022-08-29T08:28:33.404Z,9.93
2022-08-29T08:31:05.767Z,8.07
2022-08-29T08:33:35.732Z,8.98
2022-08-29T08:36:04.078Z,7.90
2022-08-29T08:38:31.673Z,9.68
2022-08-29T08:41:17.813Z,9.35
2022-08-29T08:43:58.181Z,11.95
2022-08-29T08:46:47.354Z,8.85
2022-08-29T08:49:39.202Z,8.15
2022-08-29T08:52:12.326Z,17.00
2022-08-29T08:54:49.099Z,9.27
2022-08-29T08:57:15.962Z,6.95
2022-08-29T08:59:46.009Z,7.45
2022-08-29T09:02:50.838Z,6.78
2022-08-29T09:05:35.321Z,8.65
2022-08-29T09:08:13.058Z,6.85
2022-08-29T09:11:10.119Z,6.28
2022-08-29T09:13:58.272Z,7.35
2022-08-29T09:16:47.748Z,6.30
2022-08-29T09:19:17.205Z,6.93
2022-08-29T09:21:55.291Z,6.15
2022-08-29T09:24:46.559Z,7.50
2022-08-29T09:27:25.897Z,5.97
2022-08-29T09:30:05.870Z,8.52
2022-08-29T09:32:33.263Z,5.47
2022-08-29T09:35:15.432Z,6.05
2022-08-29T09:37:42.335Z,6.10
2022-08-29T09:40:12.826Z,5.65
2022-08-29T09:42:51.211Z,7.50
2022-08-29T09:45:25.136Z,6.18
2022-08-29T09:48:15.755Z,7.40
2022-08-29T09:50:43.852Z,6.30
2022-08-29T09:53:14.368Z,7.55
2022-08-29T09:55:52.461Z,5.28
2022-08-29T09:58:20.023Z,6.50
2022-08-29T10:01:27.647Z,6.95
2022-08-29T10:04:04.747Z,7.22
2022-08-29T10:06:39.979Z,7.40
2022-08-29T10:09:23.845Z,4.95
2022-08-29T10:11:56.594Z,4.90
2022-08-29T10:14:38.220Z,5.75
2022-08-29T10:17:34.650Z,6.43
2022-08-29T10:20:01.894Z,6.00
2022-08-29T10:22:40.558Z,7.28
2022-08-29T10:25:24.080Z,7.45
2022-08-29T10:27:58.429Z,6.22
2022-08-29T10:30:34.486Z,5.78
2022-08-29T10:33:26.934Z,5.95
2022-08-29T10:35:59.864Z,6.13
2022-08-29T10:39:04.814Z,8.23
2022-08-29T10:41:33.613Z,6.13
2022-08-29T10:44:00.364Z,5.28
2022-08-29T10:46:44.016Z,5.55
2022-08-29T10:50:02.617Z,6.47
2022-08-29T10:53:08.348Z,4.82
2022-08-29T10:56:03.144Z,5.28
2022-08-29T10:58:39.232Z,9.93
2022-08-29T11:01:25.277Z,7.95
2022-08-29T11:04:30.030Z,5.55
2022-08-29T11:07:10.389Z,5.57
2022-08-29T11:09:55.425Z,4.80
2022-08-29T11:12:27.995Z,5.88
2022-08-29T11:15:11.412Z,6.07
2022-08-29T11:17:42.295Z,6.38
2022-08-29T11:20:19.617Z,5.90
2022-08-29T11:22:56.090Z,5.35
2022-08-29T11:25:23.206Z,8.02
2022-08-29T11:28:08.821Z,5.82
2022-08-29T11:31:03.400Z,5.10
2022-08-29T11:33:58.719Z,6.57
2022-08-29T11:36:45.832Z,4.38
2022-08-29T11:39:46.930Z,4.80
2022-08-29T11:42:49.867Z,5.30
2022-08-29T11:45:07.519Z,5.72
2022-08-29T11:47:45.456Z,7.32
2022-08-29T11:50:27.843Z,5.80
2022-08-29T11:53:09.666Z,10.05
2022-08-29T11:55:41.064Z,6.72
2022-08-29T11:58:28.107Z,3.80
2022-08-29T12:00:56.858Z,6.70
2022-08-29T12:03:33.501Z,4.03
2022-08-29T12:06:31.767Z,4.53
2022-08-29T12:09:36.664Z,4.13
2022-08-29T12:12:07.355Z,6.07
2022-08-29T12:14:39.577Z,5.97
2022-08-29T12:17:11.218Z,5.15
2022-08-29T12:19:52.192Z,5.22
2022-08-29T12:25:28.721Z,4.68
2022-08-29T12:28:27.944Z,3.65
2022-08-29T12:30:57.512Z,5.90
2022-08-29T12:33:29.441Z,6.32
2022-08-29T12:36:07.444Z,4.53
2022-08-29T12:38:57.572Z,4.68
2022-08-29T12:41:46.708Z,5.47
2022-08-29T12:44:16.743Z,4.03
2022-08-29T12:46:46.147Z,4.72
2022-08-29T12:49:18.870Z,4.18
2022-08-29T12:52:09.347Z,3.75
2022-08-29T12:54:39.453Z,6.00
2022-08-29T12:57:09.314Z,4.68
2022-08-29T12:59:36.159Z,4.53
2022-08-29T13:02:03.317Z,5.30
2022-08-29T13:04:33.737Z,4.65
2022-08-29T13:07:05.107Z,3.90
2022-08-29T13:09:34.261Z,4.20
2022-08-29T13:12:17.313Z,5.15
2022-08-29T13:14:53.014Z,4.80
2022-08-29T13:17:23.575Z,5.13
2022-08-29T13:20:28.216Z,4.00
2022-08-29T13:23:12.204Z,5.57
2022-08-29T13:25:49.179Z,5.60
2022-08-29T13:28:22.954Z,6.18
2022-08-29T13:31:11.758Z,4.20
2022-08-29T13:34:00.485Z,4.70
2022-08-29T13:36:27.370Z,5.75
2022-08-29T13:39:21.653Z,3.65
2022-08-29T13:42:00.963Z,5.68
2022-08-29T13:44:29.638Z,5.57
2022-08-29T13:47:01.723Z,3.67
2022-08-29T13:49:32.284Z,4.35
2022-08-29T13:52:00.294Z,5.68
2022-08-29T13:54:31.299Z,3.13
2022-08-29T13:57:01.226Z,4.45
2022-08-29T13:59:34.277Z,5.40
2022-08-29T14:02:11.607Z,3.65
2022-08-29T14:04:41.022Z,4.28
2022-08-29T14:07:25.507Z,3.80
2022-08-29T14:09:53.252Z,3.03
2022-08-29T14:12:21.423Z,4.80
2022-08-29T14:14:57.220Z,3.63
2022-08-29T14:17:25.169Z,3.40
2022-08-29T14:19:53.225Z,4.10
2022-08-29T14:22:20.066Z,4.47
2022-08-29T14:24:52.055Z,4.70
2022-08-29T14:27:20.997Z,3.17
2022-08-29T14:29:48.436Z,5.07
2022-08-29T14:32:15.337Z,4.05
2022-08-29T14:34:45.479Z,5.00
2022-08-29T14:37:20.039Z,3.95
2022-08-29T14:39:49.952Z,6.40
2022-08-29T14:42:18.023Z,3.92
2022-08-29T14:44:45.014Z,3.20
2022-08-29T14:47:12.805Z,3.33
2022-08-29T14:49:40.158Z,3.55
2022-08-29T14:52:07.223Z,3.65
2022-08-29T14:54:34.497Z,3.33
2022-08-29T14:57:01.306Z,5.10
2022-08-29T14:59:28.216Z,4.07
2022-08-29T15:01:55.510Z,4.13
2022-08-29T15:04:36.549Z,5.53
2022-08-29T15:07:07.667Z,3.28
2022-08-29T15:09:34.769Z,3.90
2022-08-29T15:12:01.621Z,4.05
2022-08-29T15:14:28.445Z,4.75
2022-08-29T15:16:55.339Z,4.13
2022-08-29T15:20:24.377Z,4.18
2022-08-29T15:22:10.356Z,3.70
2022-08-29T15:24:37.461Z,4.05
2022-08-29T15:27:05.545Z,4.97
2022-08-29T15:29:33.362Z,4.60
2022-08-29T15:32:00.273Z,4.03
2022-08-29T15:34:28.412Z,3.22
2022-08-29T15:36:56.431Z,3.53
2022-08-29T15:39:25.503Z,3.60
2022-08-29T15:41:52.379Z,6.30
2022-08-29T15:44:19.263Z,4.70
2022-08-29T15:46:50.443Z,4.15
2022-08-29T15:49:19.850Z,3.08
2022-08-29T15:51:48.473Z,3.38
2022-08-29T15:54:16.134Z,4.03
2022-08-29T15:56:43.280Z,5.75
2022-08-29T15:59:11.831Z,6.35
2022-08-29T16:01:47.506Z,3.95
2022-08-29T16:04:16.525Z,5.30
2022-08-29T16:06:43.399Z,6.28
2022-08-29T16:09:15.868Z,3.38
2022-08-29T16:11:48.372Z,4.57
2022-08-29T16:17:04.600Z,3.97
2022-08-29T16:19:31.597Z,3.40
2022-08-29T16:22:00.016Z,4.35
2022-08-29T16:24:32.359Z,3.40
2022-08-29T16:26:59.749Z,4.47
2022-08-29T16:29:27.802Z,5.32
2022-08-29T16:31:58.250Z,7.35
2022-08-29T16:34:26.987Z,4.95
2022-08-29T16:36:58.820Z,7.60
2022-08-29T16:39:26.718Z,3.40
2022-08-29T16:41:54.535Z,3.30
2022-08-29T16:44:22.349Z,4.60
2022-08-29T16:46:49.140Z,4.20
2022-08-29T16:49:16.086Z,4.70
2022-08-29T16:51:42.918Z,3.78
2022-08-29T16:54:10.086Z,5.15
2022-08-29T16:56:39.592Z,3.50
2022-08-29T16:59:07.764Z,4.32
2022-08-29T17:01:42.924Z,4.38
2022-08-29T17:04:12.776Z,3.83
2022-08-29T17:06:39.826Z,4.75
2022-08-29T17:09:08.993Z,4.90
2022-08-29T17:11:40.212Z,4.55
2022-08-29T17:14:08.486Z,3.70
2022-08-29T17:16:36.901Z,5.38
2022-08-29T17:19:06.320Z,4.60
2022-08-29T17:21:34.074Z,3.63
2022-08-29T17:24:02.442Z,4.18
2022-08-29T17:26:29.883Z,4.32
2022-08-29T17:28:56.668Z,4.80
2022-08-29T17:31:24.685Z,5.97
2022-08-29T17:33:51.692Z,8.43
2022-08-29T17:36:18.936Z,6.93
2022-08-29T17:38:46.942Z,4.63
2022-08-29T17:41:19.969Z,4.90
2022-08-29T17:43:49.135Z,4.43
2022-08-29T17:46:17.999Z,9.55
2022-08-29T17:48:45.921Z,4.47
2022-08-29T17:51:13.048Z,5.63
2022-08-29T17:53:40.922Z,4.82
2022-08-29T17:56:37.780Z,5.07
2022-08-29T17:59:05.914Z,4.57
2022-08-29T18:01:35.608Z,4.97
2022-08-29T18:04:03.001Z,4.85
2022-08-29T18:06:32.408Z,6.57
2022-08-29T18:08:59.635Z,4.20
2022-08-29T18:11:27.224Z,6.18
2022-08-29T18:13:55.258Z,7.22
2022-08-29T18:16:22.171Z,6.97
2022-08-29T18:18:49.858Z,4.90
2022-08-29T18:21:18.586Z,5.93
2022-08-29T18:23:45.871Z,6.75
2022-08-29T18:26:14.808Z,5.43
2022-08-29T18:28:41.973Z,4.75
2022-08-29T18:31:09.547Z,8.48
2022-08-29T18:33:59.721Z,6.38
2022-08-29T18:36:26.292Z,7.43
2022-08-29T18:38:53.177Z,5.72
2022-08-29T18:41:20.102Z,5.88
2022-08-29T18:43:47.320Z,7.18
2022-08-29T18:46:14.317Z,5.30
2022-08-29T18:48:44.717Z,4.57
2022-08-29T18:51:11.751Z,6.03
2022-08-29T18:53:39.870Z,5.32
2022-08-29T18:56:07.532Z,6.18
2022-08-29T18:58:35.493Z,6.95
2022-08-29T19:01:27.064Z,6.50
2022-08-29T19:03:55.800Z,5.00
2022-08-29T19:06:25.889Z,5.47
2022-08-29T19:08:53.941Z,5.63
2022-08-29T19:11:20.930Z,4.70
2022-08-29T19:13:49.010Z,6.50
2022-08-29T19:16:21.473Z,5.70
2022-08-29T19:18:49.153Z,5.95
2022-08-29T19:21:16.046Z,6.03
2022-08-29T19:23:47.264Z,5.32
2022-08-29T19:26:34.290Z,8.40
2022-08-29T19:29:05.009Z,7.38
2022-08-29T19:31:32.058Z,8.80
2022-08-29T19:33:59.109Z,6.30
2022-08-29T19:36:26.125Z,5.10
2022-08-29T19:38:53.212Z,6.45
2022-08-29T19:41:20.019Z,5.13
2022-08-29T19:43:47.039Z,5.30
2022-08-29T19:46:18.133Z,8.07
2022-08-29T19:48:48.445Z,6.35
2022-08-29T19:51:19.363Z,6.95
2022-08-29T19:53:48.091Z,6.00
2022-08-29T19:56:14.920Z,6.45
2022-08-29T19:58:42.776Z,6.50
2022-08-29T20:01:10.395Z,5.35
2022-08-29T20:03:39.927Z,6.80
2022-08-29T20:06:08.554Z,5.88
2022-08-29T20:08:46.084Z,7.28
2022-08-29T20:11:16.414Z,6.30
2022-08-29T20:13:50.558Z,6.65
2022-08-29T20:16:21.517Z,6.93
2022-08-29T20:18:50.191Z,5.55
2022-08-29T20:21:17.246Z,9.48
2022-08-29T20:23:49.455Z,6.43
2022-08-29T20:26:18.912Z,6.20
2022-08-29T20:28:47.088Z,8.55
2022-08-29T20:31:13.970Z,7.93
2022-08-29T20:33:42.610Z,6.15
2022-08-29T20:36:27.923Z,6.43
2022-08-29T20:38:55.085Z,10.13
2022-08-29T20:41:22.035Z,6.47
2022-08-29T20:43:49.083Z,6.45
2022-08-29T20:46:15.982Z,7.68
2022-08-29T20:48:42.819Z,6.43
2022-08-29T20:51:10.807Z,6.22
2022-08-29T20:53:38.755Z,7.03
2022-08-29T20:56:06.506Z,6.85
2022-08-29T20:58:34.619Z,7.18
2022-08-29T21:01:02.764Z,6.25
2022-08-29T21:03:48.484Z,7.00
2022-08-29T21:06:18.929Z,7.65
2022-08-29T21:08:45.766Z,6.63
2022-08-29T21:11:14.593Z,7.93
2022-08-29T21:13:43.202Z,12.70
2022-08-29T21:16:11.097Z,6.97
2022-08-29T21:18:38.402Z,6.03
2022-08-29T21:21:06.008Z,7.35
2022-08-29T21:23:34.262Z,6.43
2022-08-29T21:26:01.895Z,6.43
2022-08-29T21:28:32.240Z,10.75
2022-08-29T21:31:08.158Z,7.50
2022-08-29T21:33:44.356Z,9.43
2022-08-29T21:36:25.066Z,7.15
2022-08-29T21:38:54.604Z,7.40
2022-08-29T21:41:23.779Z,9.07
2022-08-29T21:43:51.618Z,7.50
2022-08-29T21:46:28.733Z,6.80
2022-08-29T21:48:57.291Z,7.72
2022-08-29T21:51:25.355Z,9.52
2022-08-29T21:53:57.814Z,7.15
2022-08-29T21:56:26.017Z,7.43
2022-08-29T21:58:54.826Z,9.68
2022-08-29T22:01:24.086Z,10.32
2022-08-29T22:03:51.697Z,8.00
2022-08-29T22:06:19.004Z,8.35
2022-08-29T22:08:47.049Z,8.45
2022-08-29T22:11:22.822Z,8.93
2022-08-29T22:13:51.923Z,8.05
2022-08-29T22:16:32.483Z,7.95
2022-08-29T22:19:06.745Z,9.15
2022-08-29T22:21:39.814Z,10.65
2022-08-29T22:24:08.128Z,8.80
2022-08-29T22:26:36.500Z,9.05
2022-08-29T22:29:04.666Z,10.18
2022-08-29T22:31:32.109Z,10.23
2022-08-29T22:34:05.212Z,10.75
2022-08-29T22:36:33.327Z,10.43
2022-08-29T22:39:00.390Z,9.23
2022-08-29T22:41:28.557Z,9.55
2022-08-29T22:44:19.870Z,10.30
2022-08-29T22:46:44.802Z,9.50
2022-08-29T22:49:12.089Z,9.00
2022-08-29T22:51:39.370Z,9.55
2022-08-29T22:54:25.171Z,11.20
2022-08-29T22:56:54.485Z,11.35
2022-08-29T22:59:22.373Z,10.35
2022-08-29T23:01:49.379Z,10.57
2022-08-29T23:04:16.323Z,9.85
2022-08-29T23:06:43.330Z,9.68
2022-08-29T23:09:10.947Z,9.88
2022-08-29T23:11:38.169Z,10.18
2022-08-29T23:14:06.326Z,9.73
2022-08-29T23:16:36.536Z,10.87
2022-08-29T23:19:04.420Z,12.45
2022-08-29T23:21:32.614Z,9.63
2022-08-29T23:24:00.167Z,8.75
2022-08-29T23:26:27.764Z,9.98
2022-08-29T23:28:54.912Z,9.05
2022-08-29T23:31:23.034Z,9.48
2022-08-29T23:33:51.511Z,9.70
2022-08-29T23:36:19.556Z,10.20
2022-08-29T23:38:46.434Z,12.90
2022-08-29T23:41:15.367Z,11.50
2022-08-29T23:43:42.801Z,9.45
2022-08-29T23:46:10.336Z,11.73
2022-08-29T23:48:37.595Z,9.80
2022-08-29T23:51:08.136Z,11.95
2022-08-29T23:53:35.626Z,10.27
2022-08-29T23:56:09.149Z,11.52
2022-08-29T23:58:36.172Z,9.70
